Time;durP1;ratioP1;P1;durP2;ratioP2;P2;SDS_P1;SDS_P2;PMS_P1;PMS_P2;Temp;Humidity;BMP_temperature;BMP_pressure;BME280_temperature;BME280_humidity;BME280_pressure;Samples;Min_cycle;Max_cycle;Signal;HPM_P1;HPM_P2
2023/05/24 00:01:42;;;;;;;1999.90;999.90;;;13.50;99.90;;;;;;5066561;28;20392;-79
2023/05/24 00:04:09;;;;;;;1999.90;999.90;;;13.40;99.90;;;;;;5053285;28;20068;-73
2023/05/24 00:06:36;;;;;;;1999.90;999.90;;;13.40;99.90;;;;;;5053432;28;20045;-72
2023/05/24 00:09:04;;;;;;;1999.90;999.90;;;13.30;99.90;;;;;;5072685;28;20060;-79
2023/05/24 00:11:30;;;;;;;1999.90;999.90;;;13.30;99.90;;;;;;5073671;28;20051;-79
2023/05/24 00:13:56;;;;;;;1999.90;999.90;;;13.30;99.90;;;;;;5072224;28;20475;-79
2023/05/24 00:16:21;;;;;;;1999.90;999.90;;;13.20;99.90;;;;;;5072573;28;20399;-72
2023/05/24 00:18:47;;;;;;;1999.90;999.90;;;13.20;99.90;;;;;;5073140;28;20028;-73
2023/05/24 00:21:13;;;;;;;1999.90;999.90;;;13.20;99.90;;;;;;5073703;28;20032;-79
2023/05/24 00:23:40;;;;;;;1999.90;999.90;;;13.20;99.90;;;;;;5073401;28;20017;-78
2023/05/24 00:26:07;;;;;;;1999.90;999.90;;;13.10;99.90;;;;;;5073134;28;20020;-79
2023/05/24 00:28:33;;;;;;;1999.90;999.90;;;13.10;99.90;;;;;;5073301;28;20028;-72
2023/05/24 00:30:59;;;;;;;1999.90;999.90;;;13.10;99.90;;;;;;5073040;28;20043;-72
2023/05/24 00:33:26;;;;;;;1999.90;999.90;;;13.10;99.90;;;;;;5071924;28;20107;-73
2023/05/24 00:35:55;;;;;;;1999.90;999.90;;;13.20;99.90;;;;;;5073092;28;20021;-79
2023/05/24 00:38:25;;;;;;;1999.90;999.90;;;13.20;99.90;;;;;;5073258;28;20506;-79
2023/05/24 00:40:51;;;;;;;1999.90;999.90;;;13.20;99.90;;;;;;5072831;28;20568;-79
2023/05/24 00:43:18;;;;;;;1999.90;999.90;;;13.20;99.90;;;;;;5073267;28;20104;-72
2023/05/24 00:45:43;;;;;;;1999.90;999.90;;;13.20;99.90;;;;;;5072681;28;20059;-72
2023/05/24 00:48:10;;;;;;;1999.90;999.90;;;13.20;99.90;;;;;;5072758;28;20064;-79
2023/05/24 00:50:38;;;;;;;1999.90;999.90;;;13.10;99.90;;;;;;5072869;28;20025;-79
2023/05/24 00:53:05;;;;;;;1999.90;999.90;;;13.00;99.90;;;;;;5073033;28;20032;-79
2023/05/24 00:55:32;;;;;;;1999.90;999.90;;;13.00;99.90;;;;;;5072817;28;20085;-72
2023/05/24 00:57:59;;;;;;;1999.90;999.90;;;13.00;99.90;;;;;;5072893;28;20092;-72
2023/05/24 01:00:26;;;;;;;1999.90;999.90;;;12.90;99.90;;;;;;5073791;28;20479;-80
2023/05/24 01:02:53;;;;;;;1999.90;999.90;;;12.90;99.90;;;;;;5060793;28;20400;-73
2023/05/24 01:05:20;;;;;;;1999.90;999.90;;;12.90;99.90;;;;;;5057017;28;20018;-79
2023/05/24 01:07:52;;;;;;;1999.90;999.90;;;12.90;99.90;;;;;;5056810;28;20056;-79
2023/05/24 01:10:47;;;;;;;1999.90;999.90;;;12.90;99.90;;;;;;5056636;28;20400;-72
2023/05/24 01:13:22;;;;;;;1999.90;999.90;;;12.90;99.90;;;;;;5056584;28;20090;-79
2023/05/24 01:16:14;;;;;;;1999.90;999.90;;;12.90;99.90;;;;;;5056707;28;20028;-72
2023/05/24 01:18:56;;;;;;;1999.90;999.90;;;12.90;99.90;;;;;;5055873;28;20021;-72
2023/05/24 01:21:37;;;;;;;1999.90;999.90;;;12.80;99.90;;;;;;5055715;28;20476;-72
2023/05/24 01:24:24;;;;;;;1999.90;999.90;;;12.90;99.90;;;;;;5055940;28;20049;-72
2023/05/24 01:26:58;;;;;;;1999.90;999.90;;;12.90;99.90;;;;;;5055367;28;20108;-79
2023/05/24 01:29:25;;;;;;;1999.90;999.90;;;12.90;99.90;;;;;;5056136;28;20033;-79
2023/05/24 01:31:50;;;;;;;1999.90;999.90;;;12.90;99.90;;;;;;5056446;28;20020;-79
2023/05/24 01:34:16;;;;;;;1999.90;999.90;;;12.90;99.90;;;;;;5056310;28;20154;-72
2023/05/24 01:36:42;;;;;;;1999.90;999.90;;;12.90;99.90;;;;;;5056131;28;20049;-73
2023/05/24 01:39:08;;;;;;;1999.90;999.90;;;12.90;99.90;;;;;;5056249;28;20025;-79
2023/05/24 01:41:42;;;;;;;1999.90;999.90;;;12.90;99.90;;;;;;5055786;28;20028;-79
2023/05/24 01:44:43;;;;;;;1999.90;999.90;;;12.90;99.90;;;;;;5055880;28;20029;-72
2023/05/24 01:47:33;;;;;;;1999.90;999.90;;;12.90;99.90;;;;;;5056066;28;20025;-72
2023/05/24 01:50:09;;;;;;;1999.90;999.90;;;12.90;99.90;;;;;;5054570;28;20032;-72
2023/05/24 01:52:36;;;;;;;1999.90;999.90;;;12.90;99.90;;;;;;5056617;28;20054;-72
2023/05/24 01:55:03;;;;;;;1999.90;999.90;;;12.90;99.90;;;;;;5055882;28;20060;-72
2023/05/24 01:57:31;;;;;;;1999.90;999.90;;;12.90;99.90;;;;;;5055888;28;20135;-79
2023/05/24 01:59:58;;;;;;;1999.90;999.90;;;13.00;99.90;;;;;;5055887;28;20058;-79
2023/05/24 02:02:24;;;;;;;1999.90;999.90;;;12.90;99.90;;;;;;5067342;28;20505;-72
2023/05/24 02:04:50;;;;;;;1999.90;999.90;;;12.90;99.90;;;;;;5075661;28;20036;-79
2023/05/24 02:07:16;;;;;;;1999.90;999.90;;;13.00;99.90;;;;;;5075500;28;20518;-72
2023/05/24 02:09:42;;;;;;;1999.90;999.90;;;13.00;99.90;;;;;;5075745;28;20031;-72
2023/05/24 02:12:08;;;;;;;1999.90;999.90;;;13.00;99.90;;;;;;5075424;28;20032;-79
2023/05/24 02:14:36;;;;;;;1999.90;999.90;;;13.00;99.90;;;;;;5075827;28;20115;-72
2023/05/24 02:17:02;;;;;;;1999.90;999.90;;;13.00;99.90;;;;;;5065729;28;20010;-79
2023/05/24 02:19:28;;;;;;;1999.90;999.90;;;13.00;99.90;;;;;;5054443;28;20071;-79
2023/05/24 02:21:53;;;;;;;1999.90;999.90;;;13.00;99.90;;;;;;5055339;28;20024;-79
2023/05/24 02:24:19;;;;;;;1999.90;999.90;;;13.00;99.90;;;;;;5053937;28;20040;-79
2023/05/24 02:26:45;;;;;;;1999.90;999.90;;;13.00;99.90;;;;;;5055373;28;20035;-72
2023/05/24 02:29:10;;;;;;;1999.90;999.90;;;13.00;99.90;;;;;;5055676;28;20028;-72
2023/05/24 02:31:36;;;;;;;1999.90;999.90;;;12.90;99.90;;;;;;5055432;28;20024;-78
2023/05/24 02:34:02;;;;;;;1999.90;999.90;;;12.90;99.90;;;;;;5054958;28;20036;-72
2023/05/24 02:36:27;;;;;;;1999.90;999.90;;;12.80;99.90;;;;;;5055209;28;20032;-79
2023/05/24 02:38:53;;;;;;;1999.90;999.90;;;12.80;99.90;;;;;;5055185;28;20044;-73
2023/05/24 02:41:19;;;;;;;1999.90;999.90;;;12.80;99.90;;;;;;5055384;28;20384;-72
2023/05/24 02:43:45;;;;;;;1999.90;999.90;;;12.80;99.90;;;;;;5055149;28;20112;-79
2023/05/24 02:46:12;;;;;;;1999.90;999.90;;;12.80;99.90;;;;;;5055001;28;20074;-79
2023/05/24 02:48:37;;;;;;;1999.90;999.90;;;12.80;99.90;;;;;;5055058;28;20021;-72
2023/05/24 02:51:03;;;;;;;1999.90;999.90;;;12.80;99.90;;;;;;5054675;28;20373;-79
2023/05/24 02:53:33;;;;;;;1999.90;999.90;;;12.70;99.90;;;;;;5055139;28;20036;-79
2023/05/24 02:55:59;;;;;;;1999.90;999.90;;;12.70;99.90;;;;;;5053456;28;20036;-72
2023/05/24 02:58:29;;;;;;;1999.90;999.90;;;12.70;99.90;;;;;;5054698;28;20025;-72
2023/05/24 03:00:55;;;;;;;1999.90;999.90;;;12.70;99.90;;;;;;5054749;28;20032;-79
2023/05/24 03:03:20;;;;;;;1999.90;999.90;;;12.70;99.90;;;;;;5054479;28;20025;-79
2023/05/24 03:05:46;;;;;;;1999.90;999.90;;;12.60;99.90;;;;;;5054758;28;20032;-73
2023/05/24 03:08:11;;;;;;;1999.90;999.90;;;12.60;99.90;;;;;;5067081;28;20049;-72
2023/05/24 03:10:37;;;;;;;1999.90;999.90;;;12.50;99.90;;;;;;5074308;28;20103;-72
2023/05/24 03:13:03;;;;;;;1999.90;999.90;;;12.50;99.90;;;;;;5073822;28;20074;-72
2023/05/24 03:15:28;;;;;;;1999.90;999.90;;;12.40;99.90;;;;;;5073952;28;20074;-79
2023/05/24 03:17:54;;;;;;;1999.90;999.90;;;12.40;99.90;;;;;;5072620;28;20470;-72
2023/05/24 03:20:20;;;;;;;1999.90;999.90;;;12.40;99.90;;;;;;5073444;28;20036;-72
2023/05/24 03:22:45;;;;;;;1999.90;999.90;;;12.30;99.90;;;;;;5073777;28;20017;-79
2023/05/24 03:25:11;;;;;;;1999.90;999.90;;;12.30;99.90;;;;;;5073978;28;20108;-79
2023/05/24 03:27:37;;;;;;;1999.90;999.90;;;12.20;99.90;;;;;;5074015;28;20032;-79
2023/05/24 03:30:05;;;;;;;1999.90;999.90;;;12.20;99.90;;;;;;5073014;28;20036;-72
2023/05/24 03:32:31;;;;;;;1999.90;999.90;;;12.20;99.90;;;;;;5074025;28;20104;-72
2023/05/24 03:34:59;;;;;;;1999.90;999.90;;;12.20;99.90;;;;;;5073787;28;20460;-79
2023/05/24 03:37:25;;;;;;;1999.90;999.90;;;12.10;99.90;;;;;;5074110;28;20422;-79
2023/05/24 03:39:50;;;;;;;1999.90;999.90;;;12.10;99.90;;;;;;5073740;28;20024;-79
2023/05/24 03:42:16;;;;;;;1999.90;999.90;;;12.10;99.90;;;;;;5073752;28;20403;-79
2023/05/24 03:44:42;;;;;;;1999.90;999.90;;;12.10;99.90;;;;;;5073980;28;20028;-72
2023/05/24 03:47:08;;;;;;;1999.90;999.90;;;12.00;99.90;;;;;;5073608;28;20023;-72
2023/05/24 03:49:34;;;;;;;1999.90;999.90;;;12.00;99.90;;;;;;5072100;28;20036;-72
2023/05/24 03:51:59;;;;;;;1999.90;999.90;;;12.00;99.90;;;;;;5073770;28;20491;-79
2023/05/24 03:54:25;;;;;;;1999.90;999.90;;;12.00;99.90;;;;;;5073479;28;20083;-72
2023/05/24 03:56:52;;;;;;;1999.90;999.90;;;11.90;99.90;;;;;;5073420;28;20076;-79
2023/05/24 03:59:18;;;;;;;1999.90;999.90;;;11.90;99.90;;;;;;5073335;28;20026;-79
2023/05/24 04:01:44;;;;;;;1999.90;999.90;;;11.90;99.90;;;;;;5065517;28;20025;-79
2023/05/24 04:04:09;;;;;;;1999.90;999.90;;;11.80;99.90;;;;;;5053263;28;20557;-72
2023/05/24 04:06:35;;;;;;;1999.90;999.90;;;11.80;99.90;;;;;;5053397;28;20064;-72
2023/05/24 04:09:01;;;;;;;1999.90;999.90;;;11.80;99.90;;;;;;5072450;28;20579;-79
2023/05/24 04:11:27;;;;;;;1999.90;999.90;;;11.70;99.90;;;;;;5073601;28;20090;-72
2023/05/24 04:13:59;;;;;;;1999.90;999.90;;;11.70;99.90;;;;;;5072961;28;20030;-72
2023/05/24 04:16:26;;;;;;;1999.90;999.90;;;11.70;99.90;;;;;;5073281;28;20012;-73
2023/05/24 04:18:55;;;;;;;1999.90;999.90;;;11.60;99.90;;;;;;5072769;28;20052;-72
2023/05/24 04:21:21;;;;;;;1999.90;999.90;;;11.60;99.90;;;;;;5072746;28;20047;-79
2023/05/24 04:23:47;;;;;;;1999.90;999.90;;;11.50;99.90;;;;;;5073028;28;20027;-72
2023/05/24 04:26:13;;;;;;;1999.90;999.90;;;11.50;99.90;;;;;;5073035;28;20400;-72
2023/05/24 04:28:39;;;;;;;1999.90;999.90;;;11.50;99.90;;;;;;5073192;28;20063;-72
2023/05/24 04:31:06;;;;;;;1999.90;999.90;;;11.50;99.90;;;;;;5073208;28;20025;-78
2023/05/24 04:33:35;;;;;;;1999.90;999.90;;;11.50;99.90;;;;;;5073007;28;20030;-79
2023/05/24 04:36:02;;;;;;;1999.90;999.90;;;11.40;99.90;;;;;;5071984;28;20024;-72
2023/05/24 04:38:28;;;;;;;1999.90;999.90;;;11.40;99.90;;;;;;5072794;28;20108;-79
2023/05/24 04:41:00;;;;;;;1999.90;999.90;;;11.40;99.90;;;;;;5072866;28;20495;-72
2023/05/24 04:43:26;;;;;;;1999.90;999.90;;;11.40;99.90;;;;;;5071856;28;20025;-72
2023/05/24 04:45:53;;;;;;;1999.90;999.90;;;11.40;99.90;;;;;;5072757;28;20036;-79
2023/05/24 04:48:20;;;;;;;1999.90;999.90;;;11.40;99.90;;;;;;5073044;28;20404;-72
2023/05/24 04:50:46;;;;;;;1999.90;999.90;;;11.40;99.90;;;;;;5072821;28;20040;-72
2023/05/24 04:53:13;;;;;;;1999.90;999.90;;;11.40;99.90;;;;;;5072713;28;20020;-72
2023/05/24 04:55:40;;;;;;;1999.90;999.90;;;11.40;99.90;;;;;;5072727;28;20410;-72
2023/05/24 04:58:05;;;;;;;1999.90;999.90;;;11.50;99.90;;;;;;5072653;28;20476;-79
2023/05/24 05:00:31;;;;;;;1999.90;999.90;;;11.50;99.90;;;;;;5072773;28;20036;-79
2023/05/24 05:02:57;;;;;;;1999.90;999.90;;;11.40;99.90;;;;;;5056085;28;20549;-72
2023/05/24 05:05:22;;;;;;;1999.90;999.90;;;11.50;99.90;;;;;;5052538;28;20040;-72
2023/05/24 05:07:48;;;;;;;1999.90;999.90;;;11.50;99.90;;;;;;5061682;28;20056;-79
2023/05/24 05:10:14;;;;;;;1999.90;999.90;;;11.50;99.90;;;;;;5072402;28;20511;-79
2023/05/24 05:12:39;;;;;;;1999.90;999.90;;;11.50;99.90;;;;;;5072654;28;20048;-72
2023/05/24 05:15:06;;;;;;;1999.90;999.90;;;11.50;99.90;;;;;;5072385;28;20154;-72
2023/05/24 05:17:32;;;;;;;1999.90;999.90;;;11.60;99.90;;;;;;5072631;28;20364;-72
2023/05/24 05:19:57;;;;;;;1999.90;999.90;;;11.60;99.90;;;;;;5071533;28;20024;-72
2023/05/24 05:22:23;;;;;;;1999.90;999.90;;;11.60;99.90;;;;;;5072566;28;20021;-79
2023/05/24 05:24:48;;;;;;;1999.90;999.90;;;11.60;99.90;;;;;;5072036;28;20028;-79
2023/05/24 05:27:14;;;;;;;1999.90;999.90;;;11.70;99.90;;;;;;5072024;28;20558;-79
2023/05/24 05:29:40;;;;;;;1999.90;999.90;;;11.70;99.90;;;;;;5072394;28;20043;-72
2023/05/24 05:32:06;;;;;;;1999.90;999.90;;;11.70;99.90;;;;;;5070963;28;20492;-72
2023/05/24 05:34:31;;;;;;;1999.90;999.90;;;11.80;99.90;;;;;;5072193;28;20078;-79
2023/05/24 05:36:57;;;;;;;1999.90;999.90;;;11.80;99.90;;;;;;5067189;28;20021;-73
2023/05/24 05:39:22;;;;;;;1999.90;999.90;;;11.90;99.90;;;;;;5051916;28;20515;-73
2023/05/24 05:41:48;;;;;;;1999.90;999.90;;;11.90;99.90;;;;;;5051783;28;20027;-73
2023/05/24 05:44:14;;;;;;;1999.90;999.90;;;11.90;99.90;;;;;;5059119;28;20453;-73
2023/05/24 05:46:42;;;;;;;1999.90;999.90;;;11.90;99.90;;;;;;5066519;28;20056;-79
2023/05/24 05:49:08;;;;;;;1999.90;999.90;;;12.00;99.90;;;;;;5062934;28;20492;-79
2023/05/24 05:51:34;;;;;;;1999.90;999.90;;;12.00;99.90;;;;;;5063672;28;20028;-74
2023/05/24 05:53:59;;;;;;;1999.90;999.90;;;12.00;99.90;;;;;;5052261;28;20087;-74
2023/05/24 05:56:26;;;;;;;1999.90;999.90;;;12.10;99.90;;;;;;5055197;28;20025;-74
2023/05/24 05:58:52;;;;;;;1999.90;999.90;;;12.10;99.90;;;;;;5064650;28;20021;-74
2023/05/24 06:01:17;;;;;;;1999.90;999.90;;;12.20;99.90;;;;;;5075070;28;20027;-80
2023/05/24 06:03:43;;;;;;;1999.90;999.90;;;12.20;99.90;;;;;;5061117;28;20449;-79
2023/05/24 06:06:09;;;;;;;1999.90;999.90;;;12.30;99.90;;;;;;5072765;28;20031;-80
2023/05/24 06:08:35;;;;;;;1999.90;999.90;;;12.30;99.90;;;;;;5072426;28;20487;-74
2023/05/24 06:11:01;;;;;;;1999.90;999.90;;;12.40;99.90;;;;;;5073774;28;20021;-74
2023/05/24 06:13:27;;;;;;;1999.90;999.90;;;12.40;99.90;;;;;;5072959;28;20033;-73
2023/05/24 06:15:54;;;;;;;1999.90;999.90;;;12.50;99.90;;;;;;5068361;28;20031;-78
2023/05/24 06:18:22;;;;;;;1999.90;999.90;;;12.40;99.90;;;;;;5066541;28;20031;-73
2023/05/24 06:20:48;;;;;;;1999.90;999.90;;;12.60;99.90;;;;;;5069198;28;20021;-80
2023/05/24 06:23:13;;;;;;;1999.90;999.90;;;12.70;99.90;;;;;;5064611;28;20047;-74
2023/05/24 06:25:42;;;;;;;1999.90;999.90;;;12.70;99.90;;;;;;5068025;28;20031;-78
2023/05/24 06:28:08;;;;;;;1999.90;999.90;;;12.80;99.90;;;;;;5066863;28;20048;-77
2023/05/24 06:30:34;;;;;;;1999.90;999.90;;;12.90;99.90;;;;;;5068807;28;20044;-82
2023/05/24 06:33:00;;;;;;;1999.90;999.90;;;13.00;99.90;;;;;;5052403;28;20445;-72
2023/05/24 06:35:25;;;;;;;1999.90;999.90;;;13.00;99.90;;;;;;5058184;28;20052;-72
2023/05/24 06:37:51;;;;;;;1999.90;999.90;;;13.10;99.90;;;;;;5065155;28;20079;-72
2023/05/24 06:40:17;;;;;;;1999.90;999.90;;;13.10;99.90;;;;;;5071516;28;20032;-81
2023/05/24 06:42:42;;;;;;;1999.90;999.90;;;13.20;99.90;;;;;;5071862;28;20028;-78
2023/05/24 06:45:08;;;;;;;1999.90;999.90;;;13.30;99.90;;;;;;5069569;28;20035;-78
2023/05/24 06:47:34;;;;;;;1999.90;999.90;;;13.40;99.90;;;;;;5063897;28;20086;-72
2023/05/24 06:50:03;;;;;;;1999.90;999.90;;;13.40;99.90;;;;;;5064892;28;20495;-72
2023/05/24 06:52:28;;;;;;;1999.90;999.90;;;13.60;99.90;;;;;;5065078;28;20033;-80
2023/05/24 06:54:54;;;;;;;1999.90;999.90;;;13.60;99.90;;;;;;5064829;28;20055;-80
2023/05/24 06:57:20;;;;;;;1999.90;999.90;;;13.60;99.90;;;;;;5069952;28;20107;-73
2023/05/24 06:59:46;;;;;;;1999.90;999.90;;;13.70;99.90;;;;;;5064271;28;20428;-72
2023/05/24 07:02:12;;;;;;;1999.90;999.90;;;13.90;99.90;;;;;;5063075;28;20040;-72
2023/05/24 07:04:39;;;;;;;1999.90;999.90;;;14.10;99.90;;;;;;5064483;28;20016;-80
2023/05/24 07:07:05;;;;;;;1999.90;999.90;;;14.10;99.90;;;;;;5060413;28;20044;-81
2023/05/24 07:09:31;;;;;;;1999.90;999.90;;;14.20;99.90;;;;;;5068766;28;20032;-80
2023/05/24 07:11:57;;;;;;;1999.90;999.90;;;14.30;99.90;;;;;;5069915;28;20036;-73
2023/05/24 07:14:24;;;;;;;1999.90;999.90;;;14.40;99.90;;;;;;5058029;28;20453;-73
2023/05/24 07:16:50;;;;;;;1999.90;999.90;;;14.40;99.90;;;;;;5059464;28;20520;-73
2023/05/24 07:19:16;;;;;;;1999.90;999.90;;;14.40;99.90;;;;;;5053242;28;20341;-81
2023/05/24 07:21:41;;;;;;;1999.90;999.90;;;14.60;99.90;;;;;;5062651;28;20032;-80
2023/05/24 07:24:07;;;;;;;1999.90;999.90;;;14.70;99.90;;;;;;5060214;28;20132;-77
2023/05/24 07:26:33;;;;;;;1999.90;999.90;;;14.90;99.90;;;;;;5058823;28;20055;-73
2023/05/24 07:28:58;;;;;;;1999.90;999.90;;;15.20;99.90;;;;;;5062427;28;20104;-81
2023/05/24 07:31:25;;;;;;;1999.90;999.90;;;15.40;99.90;;;;;;5064514;28;20032;-80
2023/05/24 07:33:50;;;;;;;1999.90;999.90;;;15.80;99.90;;;;;;5067381;28;20077;-80
2023/05/24 07:36:16;;;;;;;1999.90;999.90;;;16.70;99.90;;;;;;5067459;28;20429;-81
2023/05/24 07:38:42;;;;;;;1999.90;999.90;;;18.60;99.90;;;;;;5062432;28;20031;-73
2023/05/24 07:41:08;;;;;;;1999.90;999.90;;;19.80;99.90;;;;;;5065748;28;20052;-73
2023/05/24 07:43:33;;;;;;;1999.90;999.90;;;20.50;99.90;;;;;;5065502;28;20021;-74
2023/05/24 07:45:59;;;;;;;1999.90;999.90;;;21.20;99.90;;;;;;5064627;28;20032;-77
2023/05/24 07:48:24;;;;;;;1999.90;999.90;;;21.70;99.90;;;;;;5063812;28;20240;-80
2023/05/24 07:50:51;;;;;;;1999.90;999.90;;;21.80;99.90;;;;;;5067687;28;20103;-74
2023/05/24 07:53:18;;;;;;;1999.90;999.90;;;21.90;99.90;;;;;;5065593;28;20025;-81
2023/05/24 07:55:44;;;;;;;1999.90;999.90;;;22.30;99.90;;;;;;5068501;28;20036;-82
2023/05/24 07:58:12;;;;;;;1999.90;999.90;;;22.00;99.90;;;;;;5062652;28;20032;-73
2023/05/24 08:00:38;;;;;;;1999.90;999.90;;;22.30;99.90;;;;;;5063723;28;20032;-73
2023/05/24 08:03:04;;;;;;;1999.90;999.90;;;23.10;99.90;;;;;;5067087;28;20029;-81
2023/05/24 08:05:30;;;;;;;1999.90;999.90;;;23.90;99.90;;;;;;5059670;28;20036;-73
2023/05/24 08:07:56;;;;;;;1999.90;999.90;;;24.50;99.90;;;;;;5067798;28;20040;-73
2023/05/24 08:10:23;;;;;;;1999.90;999.90;;;24.50;99.90;;;;;;5059586;28;20029;-80
2023/05/24 08:12:53;;;;;;;1999.90;999.90;;;24.10;99.90;;;;;;5066043;28;20021;-81
2023/05/24 08:15:18;;;;;;;1999.90;999.90;;;23.80;99.90;;;;;;5068103;28;20032;-73
2023/05/24 08:17:44;;;;;;;1999.90;999.90;;;24.00;99.90;;;;;;5065775;28;20024;-74
2023/05/24 08:20:13;;;;;;;1999.90;999.90;;;23.70;99.90;;;;;;5058673;28;20142;-73
2023/05/24 08:22:39;;;;;;;1999.90;999.90;;;24.00;99.90;;;;;;5060087;28;20035;-80
2023/05/24 08:25:05;;;;;;;1999.90;999.90;;;23.80;99.90;;;;;;5066029;28;20479;-81
2023/05/24 08:27:31;;;;;;;1999.90;999.90;;;24.00;99.90;;;;;;5067802;28;20021;-83
2023/05/24 08:29:57;;;;;;;1999.90;999.90;;;24.20;99.90;;;;;;5059195;28;20110;-82
2023/05/24 08:32:23;;;;;;;1999.90;999.90;;;24.90;99.90;;;;;;5068016;28;20048;-73
2023/05/24 08:34:49;;;;;;;1999.90;999.90;;;24.90;99.90;;;;;;5068627;28;20044;-74
2023/05/24 08:37:18;;;;;;;1999.90;999.90;;;24.50;99.90;;;;;;5068304;28;20024;-74
2023/05/24 08:39:43;;;;;;;1999.90;999.90;;;24.10;99.90;;;;;;5059774;28;20040;-81
2023/05/24 08:42:09;;;;;;;1999.90;999.90;;;24.40;99.90;;;;;;5062972;28;20031;-81
2023/05/24 08:44:46;;;;;;;1999.90;999.90;;;23.50;99.90;;;;;;5066884;28;20028;-74
2023/05/24 08:47:12;;;;;;;1999.90;999.90;;;23.80;99.90;;;;;;5068762;28;20107;-75
2023/05/24 08:49:40;;;;;;;1999.90;999.90;;;23.60;99.90;;;;;;5066357;28;20035;-82
2023/05/24 08:52:10;;;;;;;1999.90;999.90;;;23.70;99.90;;;;;;5064986;28;20105;-82
2023/05/24 08:54:36;;;;;;;1999.90;999.90;;;23.80;99.90;;;;;;5060725;28;20384;-83
2023/05/24 08:57:02;;;;;;;1999.90;999.90;;;25.20;99.90;;;;;;5069332;28;20040;-74
2023/05/24 08:59:28;;;;;;;1999.90;999.90;;;25.00;99.80;;;;;;5066184;28;20067;-74
2023/05/24 09:01:53;;;;;;;1999.90;999.90;;;24.70;99.90;;;;;;5066325;28;20028;-83
2023/05/24 09:04:25;;;;;;;1999.90;999.90;;;25.00;99.90;;;;;;5068711;28;20063;-82
2023/05/24 09:06:53;;;;;;;1999.90;999.90;;;25.90;99.90;;;;;;5061043;28;20025;-81
2023/05/24 09:09:21;;;;;;;1999.90;999.90;;;25.60;99.40;;;;;;5056945;28;20425;-73
2023/05/24 09:11:50;;;;;;;1999.90;999.90;;;26.30;98.70;;;;;;5062942;28;20067;-74
2023/05/24 09:14:16;;;;;;;1999.90;999.90;;;26.40;98.10;;;;;;5057886;28;20407;-82
2023/05/24 09:16:43;;;;;;;1999.90;999.90;;;25.70;98.20;;;;;;5065754;28;20033;-83
2023/05/24 09:19:09;;;;;;;1999.90;999.90;;;26.10;98.20;;;;;;5064491;28;20025;-74
2023/05/24 09:21:34;;;;;;;1999.90;999.90;;;26.30;98.90;;;;;;5069808;28;20104;-82
2023/05/24 09:24:06;;;;;;;1999.90;999.90;;;26.20;97.60;;;;;;5068890;28;20191;-82
2023/05/24 09:26:32;;;;;;;1999.90;999.90;;;26.10;97.30;;;;;;5066295;28;20013;-82
2023/05/24 09:28:57;;;;;;;1999.90;999.90;;;26.20;97.30;;;;;;5068245;28;20465;-83
2023/05/24 09:31:33;;;;;;;1999.90;999.90;;;25.70;98.00;;;;;;5072497;28;20035;-74
2023/05/24 09:33:59;;;;;;;1999.90;999.90;;;25.50;99.60;;;;;;5062244;28;20035;-82
2023/05/24 09:36:28;;;;;;;1999.90;999.90;;;25.70;97.80;;;;;;5064237;28;20024;-74
2023/05/24 09:39:17;;;;;;;1999.90;999.90;;;25.00;98.60;;;;;;5065546;28;20052;-74
2023/05/24 09:41:55;;;;;;;1999.90;999.90;;;25.70;99.50;;;;;;5066628;28;20111;-74
2023/05/24 09:44:25;;;;;;;1999.90;999.90;;;26.50;98.10;;;;;;5064114;28;20057;-81
2023/05/24 09:46:51;;;;;;;1999.90;999.90;;;26.50;97.20;;;;;;5062461;28;20080;-82
2023/05/24 09:49:16;;;;;;;1999.90;999.90;;;26.30;97.50;;;;;;5064615;28;20438;-74
2023/05/24 09:51:42;;;;;;;1999.90;999.90;;;26.60;97.60;;;;;;5071913;28;20020;-75
2023/05/24 09:54:08;;;;;;;1999.90;999.90;;;26.20;97.40;;;;;;5069115;28;20020;-82
2023/05/24 09:56:34;;;;;;;1999.90;999.90;;;26.10;97.80;;;;;;5070522;28;20082;-82
2023/05/24 09:59:07;;;;;;;1999.90;999.90;;;26.40;98.40;;;;;;5067995;28;20016;-83
2023/05/24 10:01:33;;;;;;;1999.90;999.90;;;26.80;97.20;;;;;;5070501;28;20382;-74
2023/05/24 10:04:01;;;;;;;1999.90;999.90;;;26.80;96.80;;;;;;5060293;28;20021;-82
2023/05/24 10:06:28;;;;;;;1999.90;999.90;;;25.70;97.10;;;;;;5068978;28;20021;-74
2023/05/24 10:08:55;;;;;;;1999.90;999.90;;;25.10;98.20;;;;;;5070279;28;20111;-83
2023/05/24 10:11:21;;;;;;;1999.90;999.90;;;25.60;99.10;;;;;;5070689;28;20035;-82
2023/05/24 10:13:48;;;;;;;1999.90;999.90;;;26.40;97.70;;;;;;5072112;28;20028;-80
2023/05/24 10:16:14;;;;;;;1999.90;999.90;;;26.30;96.50;;;;;;5068190;28;20024;-75
2023/05/24 10:18:40;;;;;;;1999.90;999.90;;;26.10;96.90;;;;;;5071367;28;20552;-74
2023/05/24 10:21:08;;;;;;;1999.90;999.90;;;26.20;96.60;;;;;;5056369;28;20028;-82
2023/05/24 10:23:38;;;;;;;1999.90;999.90;;;26.20;96.40;;;;;;5069734;28;20029;-83
2023/05/24 10:26:10;;;;;;;1999.90;999.90;;;26.40;96.50;;;;;;5071450;28;20543;-83
2023/05/24 10:28:46;;;;;;;1999.90;999.90;;;26.40;96.30;;;;;;5069567;28;20612;-82
2023/05/24 10:31:16;;;;;;;1999.90;999.90;;;26.20;95.80;;;;;;5065072;28;20033;-82
2023/05/24 10:33:44;;;;;;;1999.90;999.90;;;26.50;96.60;;;;;;5062672;28;20032;-80
2023/05/24 10:36:12;;;;;;;1999.90;999.90;;;27.30;96.40;;;;;;5066741;28;20381;-72
2023/05/24 10:38:39;;;;;;;1999.90;999.90;;;27.20;95.20;;;;;;5050993;28;20051;-80
2023/05/24 10:41:07;;;;;;;1999.90;999.90;;;27.10;95.50;;;;;;5065137;28;20024;-72
2023/05/24 10:43:36;;;;;;;1999.90;999.90;;;26.70;95.10;;;;;;5064977;28;20056;-72
2023/05/24 10:46:03;;;;;;;1999.90;999.90;;;26.70;96.40;;;;;;5060707;28;20083;-79
2023/05/24 10:48:29;;;;;;;1999.90;999.90;;;26.40;96.10;;;;;;5068809;28;20364;-80
2023/05/24 10:50:55;;;;;;;1999.90;999.90;;;25.90;95.90;;;;;;5064155;28;20039;-72
2023/05/24 10:53:26;;;;;;;1999.90;999.90;;;26.10;96.50;;;;;;5061862;28;20028;-78
2023/05/24 10:56:00;;;;;;;1999.90;999.90;;;26.20;95.70;;;;;;5060604;28;20126;-80
2023/05/24 10:58:56;;;;;;;1999.90;999.90;;;26.70;96.40;;;;;;5069080;28;20043;-81
2023/05/24 11:01:31;;;;;;;1999.90;999.90;;;26.30;96.80;;;;;;5063843;28;20365;-72
2023/05/24 11:04:11;;;;;;;1999.90;999.90;;;26.80;95.40;;;;;;5068452;28;20027;-79
2023/05/24 11:07:01;;;;;;;1999.90;999.90;;;26.10;95.10;;;;;;5059673;28;20029;-72
2023/05/24 11:09:28;;;;;;;1999.90;999.90;;;26.70;96.50;;;;;;5065713;28;20039;-72
2023/05/24 11:11:56;;;;;;;1999.90;999.90;;;26.90;95.80;;;;;;5055407;28;20031;-80
2023/05/24 11:14:23;;;;;;;1999.90;999.90;;;26.70;95.10;;;;;;5057168;28;20134;-80
2023/05/24 11:16:50;;;;;;;1999.90;999.90;;;26.80;95.50;;;;;;5060710;28;20025;-72
2023/05/24 11:19:27;;;;;;;1999.90;999.90;;;26.70;95.60;;;;;;5060175;28;20033;-80
2023/05/24 11:21:57;;;;;;;1999.90;999.90;;;26.30;95.30;;;;;;5061313;28;20491;-72
2023/05/24 11:24:24;;;;;;;1999.90;999.90;;;26.50;95.70;;;;;;5065984;28;20016;-80
2023/05/24 11:26:51;;;;;;;1999.90;999.90;;;26.50;96.50;;;;;;5058374;28;20024;-80
2023/05/24 11:29:19;;;;;;;1999.90;999.90;;;27.10;95.10;;;;;;5062116;28;20071;-72
2023/05/24 11:31:48;;;;;;;1999.90;999.90;;;26.60;95.30;;;;;;5063641;28;20045;-79
2023/05/24 11:34:14;;;;;;;1999.90;999.90;;;26.50;94.70;;;;;;5063898;28;20087;-78
2023/05/24 11:36:41;;;;;;;1999.90;999.90;;;26.70;94.50;;;;;;5060063;28;20081;-72
2023/05/24 11:39:08;;;;;;;1999.90;999.90;;;26.90;93.90;;;;;;5064193;28;20483;-79
2023/05/24 11:41:37;;;;;;;1999.90;999.90;;;26.90;93.40;;;;;;5065701;28;20028;-80
2023/05/24 11:44:04;;;;;;;1999.90;999.90;;;26.80;94.00;;;;;;5060306;28;20036;-71
2023/05/24 11:46:31;;;;;;;1999.90;999.90;;;26.70;94.20;;;;;;5067676;28;20021;-72
2023/05/24 11:48:56;;;;;;;1999.90;999.90;;;27.30;94.70;;;;;;5064774;28;20033;-79
2023/05/24 11:51:30;;;;;;;1999.90;999.90;;;26.80;93.80;;;;;;5066425;28;20395;-72
2023/05/24 11:53:57;;;;;;;1999.90;999.90;;;27.00;93.40;;;;;;5064168;28;20025;-81
2023/05/24 11:56:25;;;;;;;1999.90;999.90;;;27.10;93.40;;;;;;5061323;28;20526;-79
2023/05/24 11:58:55;;;;;;;1999.90;999.90;;;26.90;93.40;;;;;;5067940;28;20514;-72
2023/05/24 12:01:26;;;;;;;1999.90;999.90;;;26.80;94.30;;;;;;5061726;28;20032;-72